sensor_id;sensor_type;location;lat;lon;timestamp;temperature;humidity
47791;DHT22;33547;49.044;1.156;2023-06-22T00:02:15;20.80;99.90
47791;DHT22;33547;49.044;1.156;2023-06-22T00:04:41;20.80;99.90
47791;DHT22;33547;49.044;1.156;2023-06-22T00:07:07;20.80;99.90
47791;DHT22;33547;49.044;1.156;2023-06-22T00:09:33;20.70;99.90
47791;DHT22;33547;49.044;1.156;2023-06-22T00:11:59;20.70;99.90
47791;DHT22;33547;49.044;1.156;2023-06-22T00:14:25;20.80;99.90
47791;DHT22;33547;49.044;1.156;2023-06-22T00:16:50;20.80;99.90
47791;DHT22;33547;49.044;1.156;2023-06-22T00:19:20;20.70;99.90
47791;DHT22;33547;49.044;1.156;2023-06-22T00:21:47;20.70;99.90
47791;DHT22;33547;49.044;1.156;2023-06-22T00:24:13;20.70;99.90
47791;DHT22;33547;49.044;1.156;2023-06-22T00:26:39;20.70;99.90
47791;DHT22;33547;49.044;1.156;2023-06-22T00:29:04;20.70;99.90
47791;DHT22;33547;49.044;1.156;2023-06-22T00:31:30;20.60;99.90
47791;DHT22;33547;49.044;1.156;2023-06-22T00:33:55;20.60;99.90
47791;DHT22;33547;49.044;1.156;2023-06-22T00:36:21;20.60;99.90
47791;DHT22;33547;49.044;1.156;2023-06-22T00:38:50;20.70;99.90
47791;DHT22;33547;49.044;1.156;2023-06-22T00:41:17;20.60;99.90
47791;DHT22;33547;49.044;1.156;2023-06-22T00:43:42;20.60;99.90
47791;DHT22;33547;49.044;1.156;2023-06-22T00:46:08;20.60;99.90
47791;DHT22;33547;49.044;1.156;2023-06-22T00:48:34;20.50;99.90
47791;DHT22;33547;49.044;1.156;2023-06-22T00:51:02;20.50;99.90
47791;DHT22;33547;49.044;1.156;2023-06-22T00:53:28;20.50;99.90
47791;DHT22;33547;49.044;1.156;2023-06-22T00:55:54;20.60;99.90
47791;DHT22;33547;49.044;1.156;2023-06-22T00:58:21;20.60;99.90
47791;DHT22;33547;49.044;1.156;2023-06-22T01:00:48;20.60;99.90
47791;DHT22;33547;49.044;1.156;2023-06-22T01:03:13;20.60;99.90
47791;DHT22;33547;49.044;1.156;2023-06-22T01:05:39;20.60;99.90
47791;DHT22;33547;49.044;1.156;2023-06-22T01:14:04;20.50;99.90
47791;DHT22;33547;49.044;1.156;2023-06-22T01:16:35;20.50;99.90
47791;DHT22;33547;49.044;1.156;2023-06-22T01:19:19;20.40;99.90
47791;DHT22;33547;49.044;1.156;2023-06-22T01:21:46;20.30;99.90
47791;DHT22;33547;49.044;1.156;2023-06-22T01:24:23;20.20;99.90
47791;DHT22;33547;49.044;1.156;2023-06-22T01:29:39;20.00;99.90
47791;DHT22;33547;49.044;1.156;2023-06-22T01:32:06;20.00;99.90
47791;DHT22;33547;49.044;1.156;2023-06-22T01:34:33;19.80;99.90
47791;DHT22;33547;49.044;1.156;2023-06-22T01:37:00;19.80;99.90
47791;DHT22;33547;49.044;1.156;2023-06-22T01:39:27;19.60;99.90
47791;DHT22;33547;49.044;1.156;2023-06-22T01:41:53;19.50;99.90
47791;DHT22;33547;49.044;1.156;2023-06-22T01:44:20;19.40;99.90
47791;DHT22;33547;49.044;1.156;2023-06-22T01:46:48;19.30;99.90
47791;DHT22;33547;49.044;1.156;2023-06-22T01:49:14;19.20;99.90
47791;DHT22;33547;49.044;1.156;2023-06-22T01:51:40;18.90;99.90
47791;DHT22;33547;49.044;1.156;2023-06-22T01:54:06;18.70;99.90
47791;DHT22;33547;49.044;1.156;2023-06-22T01:56:33;18.70;99.90
47791;DHT22;33547;49.044;1.156;2023-06-22T01:59:04;18.50;99.90
47791;DHT22;33547;49.044;1.156;2023-06-22T02:01:48;18.40;99.90
47791;DHT22;33547;49.044;1.156;2023-06-22T02:04:27;18.30;99.90
47791;DHT22;33547;49.044;1.156;2023-06-22T02:06:58;18.20;99.90
47791;DHT22;33547;49.044;1.156;2023-06-22T02:09:25;18.20;99.90
47791;DHT22;33547;49.044;1.156;2023-06-22T02:11:54;18.40;99.90
47791;DHT22;33547;49.044;1.156;2023-06-22T02:14:22;18.40;99.90
47791;DHT22;33547;49.044;1.156;2023-06-22T02:16:50;18.40;99.90
47791;DHT22;33547;49.044;1.156;2023-06-22T02:19:16;18.30;99.90
47791;DHT22;33547;49.044;1.156;2023-06-22T02:21:44;18.10;99.90
47791;DHT22;33547;49.044;1.156;2023-06-22T02:24:10;18.10;99.90
47791;DHT22;33547;49.044;1.156;2023-06-22T02:26:36;18.00;99.90
47791;DHT22;33547;49.044;1.156;2023-06-22T02:29:03;18.10;99.90
47791;DHT22;33547;49.044;1.156;2023-06-22T02:31:32;18.10;99.90
47791;DHT22;33547;49.044;1.156;2023-06-22T02:33:58;18.10;99.90
47791;DHT22;33547;49.044;1.156;2023-06-22T02:36:25;18.10;99.90
47791;DHT22;33547;49.044;1.156;2023-06-22T02:38:52;18.10;99.90
47791;DHT22;33547;49.044;1.156;2023-06-22T02:41:18;18.00;99.90
47791;DHT22;33547;49.044;1.156;2023-06-22T02:43:47;18.10;99.90
47791;DHT22;33547;49.044;1.156;2023-06-22T02:46:13;18.00;99.90
47791;DHT22;33547;49.044;1.156;2023-06-22T02:48:40;18.00;99.90
47791;DHT22;33547;49.044;1.156;2023-06-22T02:51:06;17.90;99.90
47791;DHT22;33547;49.044;1.156;2023-06-22T02:53:32;18.00;99.90
47791;DHT22;33547;49.044;1.156;2023-06-22T02:55:58;18.10;99.90
47791;DHT22;33547;49.044;1.156;2023-06-22T02:58:24;18.10;99.90
47791;DHT22;33547;49.044;1.156;2023-06-22T03:00:50;18.10;99.90
47791;DHT22;33547;49.044;1.156;2023-06-22T03:03:19;18.10;99.90
47791;DHT22;33547;49.044;1.156;2023-06-22T03:05:44;18.10;99.90
47791;DHT22;33547;49.044;1.156;2023-06-22T03:08:10;18.10;99.90
47791;DHT22;33547;49.044;1.156;2023-06-22T03:10:36;18.10;99.90
47791;DHT22;33547;49.044;1.156;2023-06-22T03:13:02;18.10;99.90
47791;DHT22;33547;49.044;1.156;2023-06-22T03:15:27;18.00;99.90
47791;DHT22;33547;49.044;1.156;2023-06-22T03:17:54;18.00;99.90
47791;DHT22;33547;49.044;1.156;2023-06-22T03:20:20;17.70;99.90
47791;DHT22;33547;49.044;1.156;2023-06-22T03:22:46;17.70;99.90
47791;DHT22;33547;49.044;1.156;2023-06-22T03:25:14;17.50;99.90
47791;DHT22;33547;49.044;1.156;2023-06-22T03:27:41;17.60;99.90
47791;DHT22;33547;49.044;1.156;2023-06-22T03:30:09;17.50;99.90
47791;DHT22;33547;49.044;1.156;2023-06-22T03:32:35;17.60;99.90
47791;DHT22;33547;49.044;1.156;2023-06-22T03:35:01;17.60;99.90
47791;DHT22;33547;49.044;1.156;2023-06-22T03:37:28;17.60;99.90
47791;DHT22;33547;49.044;1.156;2023-06-22T03:39:54;17.50;99.90
47791;DHT22;33547;49.044;1.156;2023-06-22T03:42:20;17.50;99.90
47791;DHT22;33547;49.044;1.156;2023-06-22T03:44:46;17.40;99.90
47791;DHT22;33547;49.044;1.156;2023-06-22T03:47:12;17.50;99.90
47791;DHT22;33547;49.044;1.156;2023-06-22T03:49:38;17.50;99.90
47791;DHT22;33547;49.044;1.156;2023-06-22T03:52:04;17.50;99.90
47791;DHT22;33547;49.044;1.156;2023-06-22T03:54:31;17.50;99.90
47791;DHT22;33547;49.044;1.156;2023-06-22T03:56:58;17.50;99.90
47791;DHT22;33547;49.044;1.156;2023-06-22T03:59:24;17.60;99.90
47791;DHT22;33547;49.044;1.156;2023-06-22T04:01:49;17.70;99.90
47791;DHT22;33547;49.044;1.156;2023-06-22T04:04:17;17.60;99.90
47791;DHT22;33547;49.044;1.156;2023-06-22T04:06:42;17.60;99.90
47791;DHT22;33547;49.044;1.156;2023-06-22T04:09:08;17.50;99.90
47791;DHT22;33547;49.044;1.156;2023-06-22T04:11:34;17.50;99.90
47791;DHT22;33547;49.044;1.156;2023-06-22T04:13:59;17.50;99.90
47791;DHT22;33547;49.044;1.156;2023-06-22T04:16:25;17.50;99.90
47791;DHT22;33547;49.044;1.156;2023-06-22T04:18:51;17.60;99.90
47791;DHT22;33547;49.044;1.156;2023-06-22T04:21:17;17.50;99.90
47791;DHT22;33547;49.044;1.156;2023-06-22T04:23:42;17.50;99.90
47791;DHT22;33547;49.044;1.156;2023-06-22T04:26:08;17.50;99.90
47791;DHT22;33547;49.044;1.156;2023-06-22T04:28:34;17.50;99.90
47791;DHT22;33547;49.044;1.156;2023-06-22T04:31:03;17.40;99.90
47791;DHT22;33547;49.044;1.156;2023-06-22T04:33:31;17.50;99.90
47791;DHT22;33547;49.044;1.156;2023-06-22T04:35:57;17.40;99.90
47791;DHT22;33547;49.044;1.156;2023-06-22T04:38:23;17.40;99.90
47791;DHT22;33547;49.044;1.156;2023-06-22T04:40:49;17.40;99.90
47791;DHT22;33547;49.044;1.156;2023-06-22T04:43:15;17.40;99.90
47791;DHT22;33547;49.044;1.156;2023-06-22T04:45:41;17.40;99.90
47791;DHT22;33547;49.044;1.156;2023-06-22T04:48:07;17.40;99.90
47791;DHT22;33547;49.044;1.156;2023-06-22T04:50:36;17.50;99.90
47791;DHT22;33547;49.044;1.156;2023-06-22T04:53:03;17.50;99.90
47791;DHT22;33547;49.044;1.156;2023-06-22T04:55:33;17.50;99.90
47791;DHT22;33547;49.044;1.156;2023-06-22T04:57:59;17.60;99.90
47791;DHT22;33547;49.044;1.156;2023-06-22T05:00:30;17.60;99.90
47791;DHT22;33547;49.044;1.156;2023-06-22T05:02:56;17.50;99.90
47791;DHT22;33547;49.044;1.156;2023-06-22T05:05:24;17.60;99.90
47791;DHT22;33547;49.044;1.156;2023-06-22T05:07:51;17.50;99.90
47791;DHT22;33547;49.044;1.156;2023-06-22T05:10:25;17.50;99.90
47791;DHT22;33547;49.044;1.156;2023-06-22T05:12:50;17.40;99.90
47791;DHT22;33547;49.044;1.156;2023-06-22T05:15:16;17.40;99.90
47791;DHT22;33547;49.044;1.156;2023-06-22T05:17:44;17.40;99.90
47791;DHT22;33547;49.044;1.156;2023-06-22T05:20:11;17.40;99.90
47791;DHT22;33547;49.044;1.156;2023-06-22T05:22:38;17.40;99.90
47791;DHT22;33547;49.044;1.156;2023-06-22T05:25:08;17.50;99.90
47791;DHT22;33547;49.044;1.156;2023-06-22T05:27:34;17.30;99.90
47791;DHT22;33547;49.044;1.156;2023-06-22T05:30:08;17.30;99.90
47791;DHT22;33547;49.044;1.156;2023-06-22T05:32:35;17.30;99.90
47791;DHT22;33547;49.044;1.156;2023-06-22T05:35:00;17.40;99.90
47791;DHT22;33547;49.044;1.156;2023-06-22T05:37:28;17.40;99.90
47791;DHT22;33547;49.044;1.156;2023-06-22T05:39:53;17.40;99.90
47791;DHT22;33547;49.044;1.156;2023-06-22T05:42:21;17.50;99.90
47791;DHT22;33547;49.044;1.156;2023-06-22T05:44:46;17.50;99.90
47791;DHT22;33547;49.044;1.156;2023-06-22T05:47:12;17.50;99.90
47791;DHT22;33547;49.044;1.156;2023-06-22T05:49:38;17.60;99.90
47791;DHT22;33547;49.044;1.156;2023-06-22T05:52:04;17.60;99.90
47791;DHT22;33547;49.044;1.156;2023-06-22T05:54:30;17.70;99.90
47791;DHT22;33547;49.044;1.156;2023-06-22T05:56:56;17.70;99.90
47791;DHT22;33547;49.044;1.156;2023-06-22T05:59:22;17.80;99.90
47791;DHT22;33547;49.044;1.156;2023-06-22T06:01:48;17.80;99.90
47791;DHT22;33547;49.044;1.156;2023-06-22T06:04:19;17.80;99.90
47791;DHT22;33547;49.044;1.156;2023-06-22T06:06:45;17.80;99.90
47791;DHT22;33547;49.044;1.156;2023-06-22T06:09:13;17.80;99.90
47791;DHT22;33547;49.044;1.156;2023-06-22T06:11:38;17.80;99.90
47791;DHT22;33547;49.044;1.156;2023-06-22T06:14:04;17.80;99.90
47791;DHT22;33547;49.044;1.156;2023-06-22T06:16:30;17.90;99.90
47791;DHT22;33547;49.044;1.156;2023-06-22T06:18:55;17.80;99.90
47791;DHT22;33547;49.044;1.156;2023-06-22T06:21:21;17.90;99.90
47791;DHT22;33547;49.044;1.156;2023-06-22T06:23:47;17.90;99.90
47791;DHT22;33547;49.044;1.156;2023-06-22T06:26:13;17.90;99.90
47791;DHT22;33547;49.044;1.156;2023-06-22T06:28:41;17.90;99.90
47791;DHT22;33547;49.044;1.156;2023-06-22T06:31:06;18.00;99.90
47791;DHT22;33547;49.044;1.156;2023-06-22T06:33:32;17.90;99.90
47791;DHT22;33547;49.044;1.156;2023-06-22T06:35:58;18.00;99.90
47791;DHT22;33547;49.044;1.156;2023-06-22T06:38:27;18.00;99.90
47791;DHT22;33547;49.044;1.156;2023-06-22T06:40:52;18.10;99.90
47791;DHT22;33547;49.044;1.156;2023-06-22T06:43:18;18.20;99.90
47791;DHT22;33547;49.044;1.156;2023-06-22T06:45:44;18.20;99.90
47791;DHT22;33547;49.044;1.156;2023-06-22T06:48:09;18.30;99.90
47791;DHT22;33547;49.044;1.156;2023-06-22T06:50:35;18.50;99.90
47791;DHT22;33547;49.044;1.156;2023-06-22T06:53:01;18.50;99.90
47791;DHT22;33547;49.044;1.156;2023-06-22T06:55:26;18.50;99.90
47791;DHT22;33547;49.044;1.156;2023-06-22T06:57:54;18.60;99.90
47791;DHT22;33547;49.044;1.156;2023-06-22T07:00:20;18.60;99.90
47791;DHT22;33547;49.044;1.156;2023-06-22T07:02:46;18.70;99.90
47791;DHT22;33547;49.044;1.156;2023-06-22T07:05:13;18.70;99.90
47791;DHT22;33547;49.044;1.156;2023-06-22T07:07:39;18.80;99.90
47791;DHT22;33547;49.044;1.156;2023-06-22T07:10:05;18.80;99.90
47791;DHT22;33547;49.044;1.156;2023-06-22T07:12:31;18.90;99.90
47791;DHT22;33547;49.044;1.156;2023-06-22T07:15:04;18.90;99.90
47791;DHT22;33547;49.044;1.156;2023-06-22T07:17:30;19.00;99.90
47791;DHT22;33547;49.044;1.156;2023-06-22T07:19:56;19.00;99.90
47791;DHT22;33547;49.044;1.156;2023-06-22T07:22:21;19.00;99.90
47791;DHT22;33547;49.044;1.156;2023-06-22T07:24:47;19.10;99.90
47791;DHT22;33547;49.044;1.156;2023-06-22T07:27:12;19.10;99.90
47791;DHT22;33547;49.044;1.156;2023-06-22T07:29:38;19.10;99.90
47791;DHT22;33547;49.044;1.156;2023-06-22T07:32:08;19.20;99.90
47791;DHT22;33547;49.044;1.156;2023-06-22T07:34:34;19.20;99.90
47791;DHT22;33547;49.044;1.156;2023-06-22T07:37:00;19.20;99.90
47791;DHT22;33547;49.044;1.156;2023-06-22T07:39:26;19.20;99.90
47791;DHT22;33547;49.044;1.156;2023-06-22T07:41:52;19.20;99.90
47791;DHT22;33547;49.044;1.156;2023-06-22T07:44:18;19.20;99.90
47791;DHT22;33547;49.044;1.156;2023-06-22T07:46:44;19.20;99.90
47791;DHT22;33547;49.044;1.156;2023-06-22T07:49:10;19.20;99.90
47791;DHT22;33547;49.044;1.156;2023-06-22T07:51:35;19.20;99.90
47791;DHT22;33547;49.044;1.156;2023-06-22T07:54:01;19.20;99.90
47791;DHT22;33547;49.044;1.156;2023-06-22T07:56:27;19.20;99.90
47791;DHT22;33547;49.044;1.156;2023-06-22T07:58:53;19.30;99.90
47791;DHT22;33547;49.044;1.156;2023-06-22T08:01:18;19.40;99.90
47791;DHT22;33547;49.044;1.156;2023-06-22T08:03:50;19.50;99.90
47791;DHT22;33547;49.044;1.156;2023-06-22T08:06:15;19.60;99.90
47791;DHT22;33547;49.044;1.156;2023-06-22T08:08:42;19.70;99.90
47791;DHT22;33547;49.044;1.156;2023-06-22T08:11:08;19.90;99.90
47791;DHT22;33547;49.044;1.156;2023-06-22T08:13:34;19.90;99.90
47791;DHT22;33547;49.044;1.156;2023-06-22T08:16:00;20.00;99.90
47791;DHT22;33547;49.044;1.156;2023-06-22T08:18:26;20.10;99.90
47791;DHT22;33547;49.044;1.156;2023-06-22T08:20:51;20.10;99.90
47791;DHT22;33547;49.044;1.156;2023-06-22T08:23:17;20.10;99.90
47791;DHT22;33547;49.044;1.156;2023-06-22T08:25:43;20.20;99.90
47791;DHT22;33547;49.044;1.156;2023-06-22T08:28:08;20.20;99.90
47791;DHT22;33547;49.044;1.156;2023-06-22T08:30:34;20.40;99.90
47791;DHT22;33547;49.044;1.156;2023-06-22T08:33:00;20.40;99.90
47791;DHT22;33547;49.044;1.156;2023-06-22T08:35:26;20.50;99.90
47791;DHT22;33547;49.044;1.156;2023-06-22T08:37:51;20.40;99.90
47791;DHT22;33547;49.044;1.156;2023-06-22T08:40:20;20.40;99.90
47791;DHT22;33547;49.044;1.156;2023-06-22T08:42:47;20.50;99.90
47791;DHT22;33547;49.044;1.156;2023-06-22T08:45:12;20.50;99.90
47791;DHT22;33547;49.044;1.156;2023-06-22T08:47:39;20.60;99.90
47791;DHT22;33547;49.044;1.156;2023-06-22T08:50:10;20.60;99.90
47791;DHT22;33547;49.044;1.156;2023-06-22T08:52:37;20.80;99.90
47791;DHT22;33547;49.044;1.156;2023-06-22T08:55:03;20.90;99.90
47791;DHT22;33547;49.044;1.156;2023-06-22T08:57:29;21.00;99.90
47791;DHT22;33547;49.044;1.156;2023-06-22T08:59:56;21.10;99.90
47791;DHT22;33547;49.044;1.156;2023-06-22T09:02:27;21.20;99.90
47791;DHT22;33547;49.044;1.156;2023-06-22T09:04:57;21.40;99.90
47791;DHT22;33547;49.044;1.156;2023-06-22T09:07:23;21.50;99.90
47791;DHT22;33547;49.044;1.156;2023-06-22T09:09:50;21.80;99.90
47791;DHT22;33547;49.044;1.156;2023-06-22T09:12:17;22.00;99.90
47791;DHT22;33547;49.044;1.156;2023-06-22T09:14:42;22.00;99.90
47791;DHT22;33547;49.044;1.156;2023-06-22T09:17:08;22.30;99.90
47791;DHT22;33547;49.044;1.156;2023-06-22T09:19:34;22.40;99.90
47791;DHT22;33547;49.044;1.156;2023-06-22T09:22:00;22.60;99.90
47791;DHT22;33547;49.044;1.156;2023-06-22T09:24:25;22.70;99.90
47791;DHT22;33547;49.044;1.156;2023-06-22T09:26:51;22.90;99.90
47791;DHT22;33547;49.044;1.156;2023-06-22T09:29:17;23.20;99.90
47791;DHT22;33547;49.044;1.156;2023-06-22T09:31:42;23.50;99.90
47791;DHT22;33547;49.044;1.156;2023-06-22T09:34:09;23.80;99.90
47791;DHT22;33547;49.044;1.156;2023-06-22T09:36:35;24.20;99.90
47791;DHT22;33547;49.044;1.156;2023-06-22T09:39:01;24.10;99.90
47791;DHT22;33547;49.044;1.156;2023-06-22T09:41:31;24.30;99.90
47791;DHT22;33547;49.044;1.156;2023-06-22T09:43:56;24.10;99.90
47791;DHT22;33547;49.044;1.156;2023-06-22T09:46:23;24.10;99.90
47791;DHT22;33547;49.044;1.156;2023-06-22T09:48:50;24.30;99.90
47791;DHT22;33547;49.044;1.156;2023-06-22T09:51:16;24.60;99.90
47791;DHT22;33547;49.044;1.156;2023-06-22T09:53:42;24.80;99.90
47791;DHT22;33547;49.044;1.156;2023-06-22T09:56:08;25.00;99.90
47791;DHT22;33547;49.044;1.156;2023-06-22T09:58:40;25.00;99.90
47791;DHT22;33547;49.044;1.156;2023-06-22T10:01:06;25.60;99.90
47791;DHT22;33547;49.044;1.156;2023-06-22T10:03:32;25.80;99.90
47791;DHT22;33547;49.044;1.156;2023-06-22T10:05:58;26.20;99.90
47791;DHT22;33547;49.044;1.156;2023-06-22T10:08:23;26.40;99.90
47791;DHT22;33547;49.044;1.156;2023-06-22T10:10:49;26.80;99.90
47791;DHT22;33547;49.044;1.156;2023-06-22T10:13:14;26.90;99.90
47791;DHT22;33547;49.044;1.156;2023-06-22T10:15:41;26.90;99.90
47791;DHT22;33547;49.044;1.156;2023-06-22T10:18:07;27.00;99.90
47791;DHT22;33547;49.044;1.156;2023-06-22T10:20:32;26.90;99.90
47791;DHT22;33547;49.044;1.156;2023-06-22T10:22:58;26.90;99.90
47791;DHT22;33547;49.044;1.156;2023-06-22T10:25:24;26.60;99.90
47791;DHT22;33547;49.044;1.156;2023-06-22T10:27:50;26.90;99.90
47791;DHT22;33547;49.044;1.156;2023-06-22T10:30:16;26.90;99.90
47791;DHT22;33547;49.044;1.156;2023-06-22T10:32:42;26.70;99.90
47791;DHT22;33547;49.044;1.156;2023-06-22T10:35:09;27.10;99.90
47791;DHT22;33547;49.044;1.156;2023-06-22T10:37:44;27.50;99.90
47791;DHT22;33547;49.044;1.156;2023-06-22T10:40:14;27.50;99.90
47791;DHT22;33547;49.044;1.156;2023-06-22T10:42:40;27.80;99.90
47791;DHT22;33547;49.044;1.156;2023-06-22T10:45:06;28.20;99.90
47791;DHT22;33547;49.044;1.156;2023-06-22T10:47:33;28.20;99.90
47791;DHT22;33547;49.044;1.156;2023-06-22T10:49:59;27.90;99.90
47791;DHT22;33547;49.044;1.156;2023-06-22T10:52:25;28.00;99.90
47791;DHT22;33547;49.044;1.156;2023-06-22T10:54:50;27.80;99.90
47791;DHT22;33547;49.044;1.156;2023-06-22T10:57:17;27.70;99.90
47791;DHT22;33547;49.044;1.156;2023-06-22T10:59:43;27.70;99.90
47791;DHT22;33547;49.044;1.156;2023-06-22T11:02:08;27.70;99.90
47791;DHT22;33547;49.044;1.156;2023-06-22T11:04:34;27.90;99.90
47791;DHT22;33547;49.044;1.156;2023-06-22T11:07:00;28.00;99.90
47791;DHT22;33547;49.044;1.156;2023-06-22T11:09:26;28.40;99.90
47791;DHT22;33547;49.044;1.156;2023-06-22T11:11:52;28.80;99.90
47791;DHT22;33547;49.044;1.156;2023-06-22T11:14:19;28.80;99.90
47791;DHT22;33547;49.044;1.156;2023-06-22T11:16:45;29.00;99.90
47791;DHT22;33547;49.044;1.156;2023-06-22T11:19:12;29.10;99.90
47791;DHT22;33547;49.044;1.156;2023-06-22T11:21:38;29.20;99.90
47791;DHT22;33547;49.044;1.156;2023-06-22T11:24:03;29.30;99.90
47791;DHT22;33547;49.044;1.156;2023-06-22T11:26:29;29.10;99.90
47791;DHT22;33547;49.044;1.156;2023-06-22T11:28:55;29.30;99.90
47791;DHT22;33547;49.044;1.156;2023-06-22T11:31:21;28.90;99.90
47791;DHT22;33547;49.044;1.156;2023-06-22T11:33:47;28.60;99.90
47791;DHT22;33547;49.044;1.156;2023-06-22T11:36:13;28.00;99.90
47791;DHT22;33547;49.044;1.156;2023-06-22T11:38:39;28.10;99.90
47791;DHT22;33547;49.044;1.156;2023-06-22T11:41:09;28.50;99.90
47791;DHT22;33547;49.044;1.156;2023-06-22T11:43:35;28.80;99.90
47791;DHT22;33547;49.044;1.156;2023-06-22T11:46:03;28.40;99.90
47791;DHT22;33547;49.044;1.156;2023-06-22T11:48:28;28.40;99.90
47791;DHT22;33547;49.044;1.156;2023-06-22T11:50:54;28.40;99.90
47791;DHT22;33547;49.044;1.156;2023-06-22T11:53:21;28.70;99.60
47791;DHT22;33547;49.044;1.156;2023-06-22T11:55:47;28.60;99.00
47791;DHT22;33547;49.044;1.156;2023-06-22T11:58:13;29.10;98.50
47791;DHT22;33547;49.044;1.156;2023-06-22T12:00:38;29.60;99.10
47791;DHT22;33547;49.044;1.156;2023-06-22T12:03:04;29.30;98.40
47791;DHT22;33547;49.044;1.156;2023-06-22T12:05:30;28.90;98.90
47791;DHT22;33547;49.044;1.156;2023-06-22T12:07:55;29.00;99.20
47791;DHT22;33547;49.044;1.156;2023-06-22T12:10:22;29.00;99.80
47791;DHT22;33547;49.044;1.156;2023-06-22T12:12:48;29.30;98.10
47791;DHT22;33547;49.044;1.156;2023-06-22T12:15:14;29.40;98.10
47791;DHT22;33547;49.044;1.156;2023-06-22T12:17:40;29.00;97.90
47791;DHT22;33547;49.044;1.156;2023-06-22T12:20:06;28.70;98.40
47791;DHT22;33547;49.044;1.156;2023-06-22T12:22:33;28.90;99.10
47791;DHT22;33547;49.044;1.156;2023-06-22T12:24:59;28.40;97.70
47791;DHT22;33547;49.044;1.156;2023-06-22T12:27:25;28.40;98.40
47791;DHT22;33547;49.044;1.156;2023-06-22T12:29:51;28.20;98.40
47791;DHT22;33547;49.044;1.156;2023-06-22T12:32:16;28.20;97.90
47791;DHT22;33547;49.044;1.156;2023-06-22T12:37:13;28.20;98.40
47791;DHT22;33547;49.044;1.156;2023-06-22T12:39:42;27.70;97.00
47791;DHT22;33547;49.044;1.156;2023-06-22T12:42:08;27.40;97.30
47791;DHT22;33547;49.044;1.156;2023-06-22T12:44:40;27.40;96.80
47791;DHT22;33547;49.044;1.156;2023-06-22T12:47:06;27.10;96.80
47791;DHT22;33547;49.044;1.156;2023-06-22T12:49:36;27.10;97.40
47791;DHT22;33547;49.044;1.156;2023-06-22T12:52:02;27.10;98.10
47791;DHT22;33547;49.044;1.156;2023-06-22T12:54:28;26.90;98.00
47791;DHT22;33547;49.044;1.156;2023-06-22T12:56:55;27.00;97.80
47791;DHT22;33547;49.044;1.156;2023-06-22T12:59:21;27.00;97.60
47791;DHT22;33547;49.044;1.156;2023-06-22T13:01:47;26.90;97.50
47791;DHT22;33547;49.044;1.156;2023-06-22T13:04:12;27.10;98.40
47791;DHT22;33547;49.044;1.156;2023-06-22T13:06:43;27.30;99.20
47791;DHT22;33547;49.044;1.156;2023-06-22T13:09:10;27.40;99.30
47791;DHT22;33547;49.044;1.156;2023-06-22T13:11:36;27.40;98.40
47791;DHT22;33547;49.044;1.156;2023-06-22T13:14:01;27.30;99.90
47791;DHT22;33547;49.044;1.156;2023-06-22T13:16:27;27.30;98.60
47791;DHT22;33547;49.044;1.156;2023-06-22T13:18:53;27.50;98.70
47791;DHT22;33547;49.044;1.156;2023-06-22T13:21:18;27.60;99.00
47791;DHT22;33547;49.044;1.156;2023-06-22T13:23:44;27.60;99.10
47791;DHT22;33547;49.044;1.156;2023-06-22T13:26:09;27.70;98.80
47791;DHT22;33547;49.044;1.156;2023-06-22T13:28:35;27.60;97.40
47791;DHT22;33547;49.044;1.156;2023-06-22T13:31:01;27.60;97.60
47791;DHT22;33547;49.044;1.156;2023-06-22T13:33:26;27.80;97.30
47791;DHT22;33547;49.044;1.156;2023-06-22T13:35:52;27.90;97.90
47791;DHT22;33547;49.044;1.156;2023-06-22T13:38:18;28.10;98.60
47791;DHT22;33547;49.044;1.156;2023-06-22T13:40:43;28.20;97.50
47791;DHT22;33547;49.044;1.156;2023-06-22T13:43:09;28.10;97.70
47791;DHT22;33547;49.044;1.156;2023-06-22T13:45:35;28.10;98.60
47791;DHT22;33547;49.044;1.156;2023-06-22T13:48:01;27.90;98.20
47791;DHT22;33547;49.044;1.156;2023-06-22T13:50:26;27.90;98.00
47791;DHT22;33547;49.044;1.156;2023-06-22T13:52:52;27.90;98.40
47791;DHT22;33547;49.044;1.156;2023-06-22T13:55:18;27.70;98.20
47791;DHT22;33547;49.044;1.156;2023-06-22T13:57:46;27.60;97.60
47791;DHT22;33547;49.044;1.156;2023-06-22T14:00:12;27.30;97.40
47791;DHT22;33547;49.044;1.156;2023-06-22T14:02:38;27.30;98.70
47791;DHT22;33547;49.044;1.156;2023-06-22T14:05:05;27.20;98.80
47791;DHT22;33547;49.044;1.156;2023-06-22T14:07:31;27.30;98.40
47791;DHT22;33547;49.044;1.156;2023-06-22T14:09:57;27.20;98.00
47791;DHT22;33547;49.044;1.156;2023-06-22T14:12:23;27.50;98.70
47791;DHT22;33547;49.044;1.156;2023-06-22T14:14:48;27.40;99.40
47791;DHT22;33547;49.044;1.156;2023-06-22T14:17:14;27.20;98.40
47791;DHT22;33547;49.044;1.156;2023-06-22T14:19:40;27.20;99.40
47791;DHT22;33547;49.044;1.156;2023-06-22T14:22:06;27.00;99.60
47791;DHT22;33547;49.044;1.156;2023-06-22T14:24:31;27.00;99.60
47791;DHT22;33547;49.044;1.156;2023-06-22T14:26:57;27.00;98.50
47791;DHT22;33547;49.044;1.156;2023-06-22T14:29:22;27.00;98.80
47791;DHT22;33547;49.044;1.156;2023-06-22T14:31:49;26.90;98.20
47791;DHT22;33547;49.044;1.156;2023-06-22T14:34:15;26.60;98.40
47791;DHT22;33547;49.044;1.156;2023-06-22T14:36:41;26.50;98.90
47791;DHT22;33547;49.044;1.156;2023-06-22T14:39:08;26.40;99.20
47791;DHT22;33547;49.044;1.156;2023-06-22T14:41:33;26.50;98.70
47791;DHT22;33547;49.044;1.156;2023-06-22T14:43:59;26.70;99.20
47791;DHT22;33547;49.044;1.156;2023-06-22T14:46:25;26.60;98.90
47791;DHT22;33547;49.044;1.156;2023-06-22T14:48:50;26.60;99.60
47791;DHT22;33547;49.044;1.156;2023-06-22T14:51:16;26.60;99.90
47791;DHT22;33547;49.044;1.156;2023-06-22T14:53:43;26.50;99.70
47791;DHT22;33547;49.044;1.156;2023-06-22T14:56:09;26.40;99.00
47791;DHT22;33547;49.044;1.156;2023-06-22T14:58:35;26.30;98.60
47791;DHT22;33547;49.044;1.156;2023-06-22T15:01:03;26.30;98.60
47791;DHT22;33547;49.044;1.156;2023-06-22T15:03:30;26.30;97.50
47791;DHT22;33547;49.044;1.156;2023-06-22T15:05:58;26.20;97.30
47791;DHT22;33547;49.044;1.156;2023-06-22T15:08:24;26.10;98.10
47791;DHT22;33547;49.044;1.156;2023-06-22T15:10:51;26.20;98.20
47791;DHT22;33547;49.044;1.156;2023-06-22T15:13:17;26.30;98.40
47791;DHT22;33547;49.044;1.156;2023-06-22T15:15:46;26.50;98.50
47791;DHT22;33547;49.044;1.156;2023-06-22T15:18:13;26.50;98.80
47791;DHT22;33547;49.044;1.156;2023-06-22T15:20:39;26.40;98.40
47791;DHT22;33547;49.044;1.156;2023-06-22T15:23:06;26.30;98.90
47791;DHT22;33547;49.044;1.156;2023-06-22T15:25:34;26.30;98.50
47791;DHT22;33547;49.044;1.156;2023-06-22T15:27:59;26.20;97.80
47791;DHT22;33547;49.044;1.156;2023-06-22T15:30:25;25.80;95.60
47791;DHT22;33547;49.044;1.156;2023-06-22T15:32:51;26.10;96.00
47791;DHT22;33547;49.044;1.156;2023-06-22T15:35:16;26.10;96.00
47791;DHT22;33547;49.044;1.156;2023-06-22T15:37:44;26.00;96.10